Time,TemperatureF,DewpointF,PressureIn,WindDirection,WindDirectionDegrees,WindSpeedMPH,WindSpeedGustMPH,Humidity,HourlyPrecipIn,Conditions,Clouds,dailyrainin,SolarRadiationWatts/m^2,SoftwareType,DateUTC
2013-01-19 00:00:00,43.0,8.0,-100.00,WSW,239,1.0,3.0,23,-99.99,,,0.00,-0.200000,,2013-01-19 08:00:00,
2013-01-19 00:53:00,43.0,8.0,-100.00,WSW,239,1.0,3.0,23,-99.99,,,0.00,-0.200000,,2013-01-19 08:53:00,
2013-01-19 01:00:00,44.0,8.0,-100.00,South,189,1.0,3.0,23,-99.99,,,0.00,-0.200000,,2013-01-19 09:00:00,
2013-01-19 01:53:00,44.0,8.0,-100.00,South,189,1.0,3.0,23,-99.99,,,0.00,-0.200000,,2013-01-19 09:53:00,
2013-01-19 02:00:00,44.0,8.0,-100.00,West,279,1.0,4.0,23,-99.99,,,0.00,-0.200000,,2013-01-19 10:00:00,
2013-01-19 02:53:00,44.0,8.0,-100.00,West,279,1.0,4.0,23,-99.99,,,0.00,-0.200000,,2013-01-19 10:53:00,
2013-01-19 04:00:00,43.0,8.0,-100.00,SSW,196,0.0,1.0,23,-99.99,,,-99.99,-0.200000,,2013-01-19 12:00:00,
2013-01-19 04:53:00,43.0,8.0,-100.00,SSW,196,0.0,1.0,23,-99.99,,,-99.99,-0.200000,,2013-01-19 12:53:00,
2013-01-19 05:00:00,43.0,6.0,-100.00,NE,39,0.0,1.0,22,-99.99,,,0.00,-0.200000,,2013-01-19 13:00:00,
2013-01-19 05:53:00,43.0,6.0,-100.00,NE,39,0.0,1.0,22,-99.99,,,0.00,-0.200000,,2013-01-19 13:53:00,
2013-01-19 06:00:00,43.0,6.0,-100.00,West,268,1.0,3.0,21,-99.99,,,0.00,-0.200000,,2013-01-19 14:00:00,
2013-01-19 06:53:00,43.0,6.0,-100.00,West,268,1.0,3.0,21,-99.99,,,0.00,-0.200000,,2013-01-19 14:53:00,
2013-01-19 07:00:00,42.0,6.0,-100.00,SW,217,0.0,1.0,22,-99.99,,,-99.99,-0.200000,,2013-01-19 15:00:00,
2013-01-19 07:53:00,42.0,6.0,-100.00,SW,217,0.0,1.0,22,-99.99,,,-99.99,-0.200000,,2013-01-19 15:53:00,
2013-01-19 08:00:00,45.0,6.0,-100.00,SSE,167,1.0,3.0,20,-99.99,,,0.00,4.600000,,2013-01-19 16:00:00,
2013-01-19 08:54:00,45.0,6.0,-100.00,SSE,167,1.0,3.0,20,-99.99,,,0.00,4.600000,,2013-01-19 16:54:00,
2013-01-19 09:54:00,47.0,1.0,-100.00,NNW,330,1.0,2.0,14,-99.99,,,0.00,56.500000,,2013-01-19 17:54:00,
2013-01-19 10:59:00,51.0,0.0,-100.00,WSW,242,0.0,3.0,12,-99.99,,,0.00,162.399994,,2013-01-19 18:59:00,
2013-01-19 11:00:00,51.0,0.0,-100.00,WSW,254,2.0,5.0,12,-99.99,,,-99.99,278.000000,,2013-01-19 19:00:00,
2013-01-19 12:00:00,51.0,1.0,-100.00,ESE,117,3.0,5.0,12,-99.99,,,0.00,332.500000,,2013-01-19 20:00:00,
2013-01-19 12:57:00,51.0,1.0,-100.00,ESE,117,3.0,5.0,12,-99.99,,,0.00,332.500000,,2013-01-19 20:57:00,
2013-01-19 13:59:00,52.0,2.0,-100.00,ESE,104,3.0,5.0,13,-99.99,,,-99.99,336.899994,,2013-01-19 21:59:00,
2013-01-19 14:00:00,51.0,4.0,-100.00,NE,48,2.0,6.0,14,-99.99,,,-99.99,265.299988,,2013-01-19 22:00:00,
2013-01-19 14:58:00,51.0,4.0,-100.00,NE,48,2.0,6.0,14,-99.99,,,-99.99,265.299988,,2013-01-19 22:58:00,
2013-01-19 15:00:00,51.0,3.0,-100.00,NW,314,2.0,3.0,14,-99.99,,,-99.99,344.000000,,2013-01-19 23:00:00,
2013-01-19 16:00:00,48.0,5.0,-100.00,SE,131,1.0,3.0,17,-99.99,,,0.00,110.099998,,2013-01-20 00:00:00,
2013-01-19 16:55:00,48.0,5.0,-100.00,SE,131,1.0,3.0,17,-99.99,,,0.00,110.099998,,2013-01-20 00:55:00,
2013-01-19 17:00:00,46.0,3.0,-100.00,SW,215,3.0,6.0,16,-99.99,,,-99.99,21.299999,,2013-01-20 01:00:00,
2013-01-19 18:00:00,46.0,1.0,-100.00,South,176,3.0,6.0,15,-99.99,,,-99.99,0.200000,,2013-01-20 02:00:00,
2013-01-19 18:58:00,46.0,1.0,-100.00,South,176,3.0,6.0,15,-99.99,,,-99.99,0.200000,,2013-01-20 02:58:00,
2013-01-19 19:00:00,46.0,4.0,-100.00,SSW,194,4.0,8.0,17,-99.99,,,-99.99,-0.200000,,2013-01-20 03:00:00,
2013-01-19 19:57:00,46.0,4.0,-100.00,SSW,194,4.0,8.0,17,-99.99,,,-99.99,-0.200000,,2013-01-20 03:57:00,
2013-01-19 20:00:00,46.0,2.0,-100.00,South,178,4.0,7.0,16,-99.99,,,0.00,-0.200000,,2013-01-20 04:00:00,
2013-01-19 20:56:00,46.0,2.0,-100.00,South,178,4.0,7.0,16,-99.99,,,0.00,-0.200000,,2013-01-20 04:56:00,
2013-01-19 21:00:00,46.0,4.0,-100.00,SW,218,3.0,6.0,17,-99.99,,,0.00,-0.200000,,2013-01-20 05:00:00,
2013-01-19 21:53:00,46.0,4.0,-100.00,SW,218,3.0,6.0,17,-99.99,,,0.00,-0.200000,,2013-01-20 05:53:00,
2013-01-19 22:00:00,46.0,4.0,-100.00,SW,216,4.0,6.0,17,-99.99,,,-99.99,-0.200000,,2013-01-20 06:00:00,
2013-01-19 22:53:00,46.0,4.0,-100.00,SW,216,4.0,6.0,17,-99.99,,,-99.99,-0.200000,,2013-01-20 06:53:00,
2013-01-19 23:00:00,47.0,4.0,-100.00,South,190,4.0,6.0,17,-99.99,,,-99.99,-0.200000,,2013-01-20 07:00:00,
2013-01-19 23:52:00,47.0,4.0,-100.00,South,190,4.0,6.0,17,-99.99,,,-99.99,-0.200000,,2013-01-20 07:52:00,